sensor_id;sensor_type;location;lat;lon;timestamp;temperature;humidity
41447;DHT22;27185;52.040;4.490;2023-08-07T00:01:28;16.70;99.90
41447;DHT22;27185;52.040;4.490;2023-08-07T00:04:13;16.90;99.90
41447;DHT22;27185;52.040;4.490;2023-08-07T00:06:59;16.90;99.90
41447;DHT22;27185;52.040;4.490;2023-08-07T00:09:44;16.90;99.90
41447;DHT22;27185;52.040;4.490;2023-08-07T00:12:30;17.00;99.90
41447;DHT22;27185;52.040;4.490;2023-08-07T00:15:16;17.00;99.90
41447;DHT22;27185;52.040;4.490;2023-08-07T00:18:01;16.90;99.90
41447;DHT22;27185;52.040;4.490;2023-08-07T00:20:47;16.80;99.90
41447;DHT22;27185;52.040;4.490;2023-08-07T00:23:34;16.70;99.90
41447;DHT22;27185;52.040;4.490;2023-08-07T00:26:19;16.60;99.90
41447;DHT22;27185;52.040;4.490;2023-08-07T00:29:05;16.60;99.90
41447;DHT22;27185;52.040;4.490;2023-08-07T00:31:51;16.60;99.90
41447;DHT22;27185;52.040;4.490;2023-08-07T00:34:36;16.60;99.90
41447;DHT22;27185;52.040;4.490;2023-08-07T00:37:22;16.60;99.90
41447;DHT22;27185;52.040;4.490;2023-08-07T00:40:08;16.60;99.90
41447;DHT22;27185;52.040;4.490;2023-08-07T00:42:53;16.50;99.90
41447;DHT22;27185;52.040;4.490;2023-08-07T00:45:42;16.40;99.90
41447;DHT22;27185;52.040;4.490;2023-08-07T00:48:30;16.30;99.90
41447;DHT22;27185;52.040;4.490;2023-08-07T00:51:16;16.10;99.90
41447;DHT22;27185;52.040;4.490;2023-08-07T00:54:04;16.00;99.90
41447;DHT22;27185;52.040;4.490;2023-08-07T00:56:50;15.90;99.90
41447;DHT22;27185;52.040;4.490;2023-08-07T00:59:36;15.80;99.90
41447;DHT22;27185;52.040;4.490;2023-08-07T01:02:21;15.70;99.90
41447;DHT22;27185;52.040;4.490;2023-08-07T01:05:07;15.70;99.90
41447;DHT22;27185;52.040;4.490;2023-08-07T01:07:53;15.70;99.90
41447;DHT22;27185;52.040;4.490;2023-08-07T01:19:34;15.80;99.90
41447;DHT22;27185;52.040;4.490;2023-08-07T01:22:21;15.90;99.90
41447;DHT22;27185;52.040;4.490;2023-08-07T01:25:07;16.00;99.90
41447;DHT22;27185;52.040;4.490;2023-08-07T01:27:53;16.10;99.90
41447;DHT22;27185;52.040;4.490;2023-08-07T01:30:44;16.20;99.90
41447;DHT22;27185;52.040;4.490;2023-08-07T01:33:37;16.30;99.90
41447;DHT22;27185;52.040;4.490;2023-08-07T01:36:27;16.30;99.90
41447;DHT22;27185;52.040;4.490;2023-08-07T01:39:14;16.40;99.90
41447;DHT22;27185;52.040;4.490;2023-08-07T01:42:00;16.50;99.90
41447;DHT22;27185;52.040;4.490;2023-08-07T01:44:48;16.50;99.90
41447;DHT22;27185;52.040;4.490;2023-08-07T01:47:34;16.40;99.90
41447;DHT22;27185;52.040;4.490;2023-08-07T01:50:20;16.40;99.90
41447;DHT22;27185;52.040;4.490;2023-08-07T01:53:06;16.30;99.90
41447;DHT22;27185;52.040;4.490;2023-08-07T01:55:52;16.30;99.90
41447;DHT22;27185;52.040;4.490;2023-08-07T01:58:37;16.30;99.90
41447;DHT22;27185;52.040;4.490;2023-08-07T02:01:23;16.30;99.90
41447;DHT22;27185;52.040;4.490;2023-08-07T02:04:08;16.40;99.90
41447;DHT22;27185;52.040;4.490;2023-08-07T02:06:54;16.40;99.90
41447;DHT22;27185;52.040;4.490;2023-08-07T02:09:39;16.40;99.90
41447;DHT22;27185;52.040;4.490;2023-08-07T02:12:25;16.50;99.90
41447;DHT22;27185;52.040;4.490;2023-08-07T02:15:11;16.60;99.90
41447;DHT22;27185;52.040;4.490;2023-08-07T02:17:57;16.60;99.90
41447;DHT22;27185;52.040;4.490;2023-08-07T02:20:43;16.70;99.90
41447;DHT22;27185;52.040;4.490;2023-08-07T02:23:28;16.80;99.90
41447;DHT22;27185;52.040;4.490;2023-08-07T02:26:14;16.80;99.90
41447;DHT22;27185;52.040;4.490;2023-08-07T02:28:59;16.80;99.90
41447;DHT22;27185;52.040;4.490;2023-08-07T02:31:45;16.90;99.90
41447;DHT22;27185;52.040;4.490;2023-08-07T02:34:31;16.90;99.90
41447;DHT22;27185;52.040;4.490;2023-08-07T02:37:16;17.00;99.90
41447;DHT22;27185;52.040;4.490;2023-08-07T02:40:02;17.10;99.90
41447;DHT22;27185;52.040;4.490;2023-08-07T02:42:48;17.10;99.90
41447;DHT22;27185;52.040;4.490;2023-08-07T02:45:34;17.10;99.90
41447;DHT22;27185;52.040;4.490;2023-08-07T02:48:20;17.10;99.90
41447;DHT22;27185;52.040;4.490;2023-08-07T02:51:06;17.00;99.90
41447;DHT22;27185;52.040;4.490;2023-08-07T02:53:52;16.90;99.90
41447;DHT22;27185;52.040;4.490;2023-08-07T02:56:37;16.70;99.90
41447;DHT22;27185;52.040;4.490;2023-08-07T02:59:23;16.60;99.90
41447;DHT22;27185;52.040;4.490;2023-08-07T03:02:08;16.50;99.90
41447;DHT22;27185;52.040;4.490;2023-08-07T03:04:54;16.50;99.90
41447;DHT22;27185;52.040;4.490;2023-08-07T03:07:39;16.50;99.90
41447;DHT22;27185;52.040;4.490;2023-08-07T03:10:25;16.50;99.90
41447;DHT22;27185;52.040;4.490;2023-08-07T03:13:11;16.50;99.90
41447;DHT22;27185;52.040;4.490;2023-08-07T03:16:00;16.40;99.90
41447;DHT22;27185;52.040;4.490;2023-08-07T03:18:46;16.30;99.90
41447;DHT22;27185;52.040;4.490;2023-08-07T03:21:32;16.30;99.90
41447;DHT22;27185;52.040;4.490;2023-08-07T03:24:19;16.20;99.90
41447;DHT22;27185;52.040;4.490;2023-08-07T03:27:04;16.10;99.90
41447;DHT22;27185;52.040;4.490;2023-08-07T03:29:50;16.10;99.90
41447;DHT22;27185;52.040;4.490;2023-08-07T03:32:36;16.20;99.90
41447;DHT22;27185;52.040;4.490;2023-08-07T03:35:21;16.20;99.90
41447;DHT22;27185;52.040;4.490;2023-08-07T03:38:07;16.20;99.90
41447;DHT22;27185;52.040;4.490;2023-08-07T03:40:52;16.20;99.90
41447;DHT22;27185;52.040;4.490;2023-08-07T03:43:38;16.30;99.90
41447;DHT22;27185;52.040;4.490;2023-08-07T03:46:23;16.30;99.90
41447;DHT22;27185;52.040;4.490;2023-08-07T03:49:09;16.40;99.90
41447;DHT22;27185;52.040;4.490;2023-08-07T03:51:54;16.40;99.90
41447;DHT22;27185;52.040;4.490;2023-08-07T03:54:41;16.40;99.90
41447;DHT22;27185;52.040;4.490;2023-08-07T03:57:28;16.50;99.90
41447;DHT22;27185;52.040;4.490;2023-08-07T04:00:14;16.50;99.90
41447;DHT22;27185;52.040;4.490;2023-08-07T04:03:00;16.60;99.90
41447;DHT22;27185;52.040;4.490;2023-08-07T04:05:45;16.70;99.90
41447;DHT22;27185;52.040;4.490;2023-08-07T04:08:31;16.70;99.90
41447;DHT22;27185;52.040;4.490;2023-08-07T04:11:16;16.80;99.90
41447;DHT22;27185;52.040;4.490;2023-08-07T04:14:02;16.80;99.90
41447;DHT22;27185;52.040;4.490;2023-08-07T04:16:49;16.90;99.90
41447;DHT22;27185;52.040;4.490;2023-08-07T04:19:35;17.00;99.90
41447;DHT22;27185;52.040;4.490;2023-08-07T04:22:20;17.00;99.90
41447;DHT22;27185;52.040;4.490;2023-08-07T04:25:06;17.10;99.90
41447;DHT22;27185;52.040;4.490;2023-08-07T04:27:52;17.10;99.90
41447;DHT22;27185;52.040;4.490;2023-08-07T04:30:37;17.20;99.90
41447;DHT22;27185;52.040;4.490;2023-08-07T04:33:23;17.20;99.90
41447;DHT22;27185;52.040;4.490;2023-08-07T04:36:09;17.30;99.90
41447;DHT22;27185;52.040;4.490;2023-08-07T04:38:54;17.30;99.90
41447;DHT22;27185;52.040;4.490;2023-08-07T04:41:41;17.30;99.90
41447;DHT22;27185;52.040;4.490;2023-08-07T04:44:26;17.30;99.90
41447;DHT22;27185;52.040;4.490;2023-08-07T04:47:12;17.20;99.90
41447;DHT22;27185;52.040;4.490;2023-08-07T04:49:58;17.20;99.90
41447;DHT22;27185;52.040;4.490;2023-08-07T04:52:43;17.20;99.90
41447;DHT22;27185;52.040;4.490;2023-08-07T04:55:29;17.20;99.90
41447;DHT22;27185;52.040;4.490;2023-08-07T04:58:15;17.20;99.90
41447;DHT22;27185;52.040;4.490;2023-08-07T05:01:01;17.30;99.90
41447;DHT22;27185;52.040;4.490;2023-08-07T05:03:46;17.30;99.90
41447;DHT22;27185;52.040;4.490;2023-08-07T05:06:32;17.30;99.90
41447;DHT22;27185;52.040;4.490;2023-08-07T05:09:18;17.30;99.90
41447;DHT22;27185;52.040;4.490;2023-08-07T05:12:04;17.30;99.90
41447;DHT22;27185;52.040;4.490;2023-08-07T05:14:50;17.30;99.90
41447;DHT22;27185;52.040;4.490;2023-08-07T05:17:35;17.30;99.90
41447;DHT22;27185;52.040;4.490;2023-08-07T05:20:21;17.30;99.90
41447;DHT22;27185;52.040;4.490;2023-08-07T05:23:07;17.30;99.90
41447;DHT22;27185;52.040;4.490;2023-08-07T05:25:52;17.40;99.90
41447;DHT22;27185;52.040;4.490;2023-08-07T05:28:38;17.40;99.90
41447;DHT22;27185;52.040;4.490;2023-08-07T05:31:24;17.40;99.90
41447;DHT22;27185;52.040;4.490;2023-08-07T05:34:10;17.40;99.90
41447;DHT22;27185;52.040;4.490;2023-08-07T05:36:57;17.40;99.90
41447;DHT22;27185;52.040;4.490;2023-08-07T05:39:42;17.40;99.90
41447;DHT22;27185;52.040;4.490;2023-08-07T05:42:29;17.50;99.90
41447;DHT22;27185;52.040;4.490;2023-08-07T05:45:15;17.50;99.90
41447;DHT22;27185;52.040;4.490;2023-08-07T05:48:00;17.50;99.90
41447;DHT22;27185;52.040;4.490;2023-08-07T05:50:46;17.50;99.90
41447;DHT22;27185;52.040;4.490;2023-08-07T05:53:31;17.50;99.90
41447;DHT22;27185;52.040;4.490;2023-08-07T05:56:17;17.50;99.90
41447;DHT22;27185;52.040;4.490;2023-08-07T05:59:04;17.50;99.90
41447;DHT22;27185;52.040;4.490;2023-08-07T06:01:50;17.50;99.90
41447;DHT22;27185;52.040;4.490;2023-08-07T06:04:36;17.60;99.90
41447;DHT22;27185;52.040;4.490;2023-08-07T06:07:22;17.60;99.90
41447;DHT22;27185;52.040;4.490;2023-08-07T06:10:07;17.60;99.90
41447;DHT22;27185;52.040;4.490;2023-08-07T06:12:53;17.70;99.90
41447;DHT22;27185;52.040;4.490;2023-08-07T06:15:39;17.70;99.90
41447;DHT22;27185;52.040;4.490;2023-08-07T06:18:24;17.70;99.90
41447;DHT22;27185;52.040;4.490;2023-08-07T06:21:10;17.70;99.90
41447;DHT22;27185;52.040;4.490;2023-08-07T06:23:56;17.70;99.90
41447;DHT22;27185;52.040;4.490;2023-08-07T06:26:42;17.70;99.90
41447;DHT22;27185;52.040;4.490;2023-08-07T06:29:27;17.80;99.90
41447;DHT22;27185;52.040;4.490;2023-08-07T06:32:13;17.70;99.90
41447;DHT22;27185;52.040;4.490;2023-08-07T06:34:59;17.80;99.90
41447;DHT22;27185;52.040;4.490;2023-08-07T06:37:44;17.80;99.90
41447;DHT22;27185;52.040;4.490;2023-08-07T06:40:30;17.90;99.90
41447;DHT22;27185;52.040;4.490;2023-08-07T06:43:15;17.80;99.90
41447;DHT22;27185;52.040;4.490;2023-08-07T06:46:01;17.90;99.90
41447;DHT22;27185;52.040;4.490;2023-08-07T06:48:49;18.00;99.90
41447;DHT22;27185;52.040;4.490;2023-08-07T06:51:35;18.00;99.90
41447;DHT22;27185;52.040;4.490;2023-08-07T06:54:20;18.00;99.90
41447;DHT22;27185;52.040;4.490;2023-08-07T06:57:06;18.10;99.90
41447;DHT22;27185;52.040;4.490;2023-08-07T06:59:51;18.10;99.90
41447;DHT22;27185;52.040;4.490;2023-08-07T07:02:37;18.20;99.90
41447;DHT22;27185;52.040;4.490;2023-08-07T07:05:23;18.30;99.90
41447;DHT22;27185;52.040;4.490;2023-08-07T07:08:08;18.40;99.90
41447;DHT22;27185;52.040;4.490;2023-08-07T07:10:54;18.40;99.90
41447;DHT22;27185;52.040;4.490;2023-08-07T07:13:39;18.50;99.90
41447;DHT22;27185;52.040;4.490;2023-08-07T07:16:28;18.50;99.90
41447;DHT22;27185;52.040;4.490;2023-08-07T07:19:13;18.50;99.90
41447;DHT22;27185;52.040;4.490;2023-08-07T07:21:59;18.50;99.90
41447;DHT22;27185;52.040;4.490;2023-08-07T07:24:45;18.50;99.90
41447;DHT22;27185;52.040;4.490;2023-08-07T07:27:30;18.50;99.90
41447;DHT22;27185;52.040;4.490;2023-08-07T07:30:17;18.50;99.90
41447;DHT22;27185;52.040;4.490;2023-08-07T07:33:03;18.50;99.90
41447;DHT22;27185;52.040;4.490;2023-08-07T07:35:48;18.50;99.90
41447;DHT22;27185;52.040;4.490;2023-08-07T07:38:34;18.50;99.90
41447;DHT22;27185;52.040;4.490;2023-08-07T07:41:22;18.50;99.90
41447;DHT22;27185;52.040;4.490;2023-08-07T07:44:07;18.60;99.90
41447;DHT22;27185;52.040;4.490;2023-08-07T07:46:53;18.60;99.90
41447;DHT22;27185;52.040;4.490;2023-08-07T07:49:39;18.70;99.90
41447;DHT22;27185;52.040;4.490;2023-08-07T07:52:24;18.80;99.90
41447;DHT22;27185;52.040;4.490;2023-08-07T07:55:10;18.80;99.90
41447;DHT22;27185;52.040;4.490;2023-08-07T07:57:57;18.90;99.90
41447;DHT22;27185;52.040;4.490;2023-08-07T08:00:43;19.00;99.90
41447;DHT22;27185;52.040;4.490;2023-08-07T08:03:28;19.10;99.90
41447;DHT22;27185;52.040;4.490;2023-08-07T08:06:14;19.20;99.90
41447;DHT22;27185;52.040;4.490;2023-08-07T08:08:59;19.20;99.90
41447;DHT22;27185;52.040;4.490;2023-08-07T08:11:53;19.20;99.90
41447;DHT22;27185;52.040;4.490;2023-08-07T08:14:38;19.20;99.90
41447;DHT22;27185;52.040;4.490;2023-08-07T08:17:25;19.30;99.90
41447;DHT22;27185;52.040;4.490;2023-08-07T08:20:11;19.30;99.90
41447;DHT22;27185;52.040;4.490;2023-08-07T08:22:57;19.40;99.90
41447;DHT22;27185;52.040;4.490;2023-08-07T08:25:42;19.50;99.90
41447;DHT22;27185;52.040;4.490;2023-08-07T08:28:28;19.50;99.90
41447;DHT22;27185;52.040;4.490;2023-08-07T08:31:14;19.50;99.90
41447;DHT22;27185;52.040;4.490;2023-08-07T08:34:00;19.50;99.90
41447;DHT22;27185;52.040;4.490;2023-08-07T08:36:45;19.50;99.90
41447;DHT22;27185;52.040;4.490;2023-08-07T08:39:31;19.50;99.90
41447;DHT22;27185;52.040;4.490;2023-08-07T08:42:16;19.50;99.90
41447;DHT22;27185;52.040;4.490;2023-08-07T08:45:09;19.50;99.90
41447;DHT22;27185;52.040;4.490;2023-08-07T08:48:01;19.50;99.90
41447;DHT22;27185;52.040;4.490;2023-08-07T08:50:49;19.60;99.90
41447;DHT22;27185;52.040;4.490;2023-08-07T08:53:37;19.60;99.90
41447;DHT22;27185;52.040;4.490;2023-08-07T08:56:23;19.70;99.90
41447;DHT22;27185;52.040;4.490;2023-08-07T08:59:09;19.70;99.90
41447;DHT22;27185;52.040;4.490;2023-08-07T09:01:54;19.70;99.90
41447;DHT22;27185;52.040;4.490;2023-08-07T09:04:40;19.80;99.90
41447;DHT22;27185;52.040;4.490;2023-08-07T09:07:27;19.80;99.90
41447;DHT22;27185;52.040;4.490;2023-08-07T09:10:14;19.90;99.90
41447;DHT22;27185;52.040;4.490;2023-08-07T09:13:02;19.90;99.90
41447;DHT22;27185;52.040;4.490;2023-08-07T09:15:51;19.90;99.90
41447;DHT22;27185;52.040;4.490;2023-08-07T09:18:37;20.00;99.90
41447;DHT22;27185;52.040;4.490;2023-08-07T09:21:23;20.00;99.90
41447;DHT22;27185;52.040;4.490;2023-08-07T09:24:08;20.10;99.90
41447;DHT22;27185;52.040;4.490;2023-08-07T09:26:55;20.30;99.90
41447;DHT22;27185;52.040;4.490;2023-08-07T09:29:41;20.60;99.90
41447;DHT22;27185;52.040;4.490;2023-08-07T09:32:28;20.80;99.60
41447;DHT22;27185;52.040;4.490;2023-08-07T09:35:14;20.90;99.60
41447;DHT22;27185;52.040;4.490;2023-08-07T09:38:00;21.10;99.30
41447;DHT22;27185;52.040;4.490;2023-08-07T09:40:46;21.20;98.50
41447;DHT22;27185;52.040;4.490;2023-08-07T09:43:34;21.40;98.20
41447;DHT22;27185;52.040;4.490;2023-08-07T09:46:21;21.50;98.70
41447;DHT22;27185;52.040;4.490;2023-08-07T09:49:06;21.60;98.20
41447;DHT22;27185;52.040;4.490;2023-08-07T09:51:52;21.60;97.60
41447;DHT22;27185;52.040;4.490;2023-08-07T09:54:37;21.70;97.90
41447;DHT22;27185;52.040;4.490;2023-08-07T09:57:23;21.70;97.70
41447;DHT22;27185;52.040;4.490;2023-08-07T10:00:10;21.80;96.70
41447;DHT22;27185;52.040;4.490;2023-08-07T10:02:57;21.90;97.50
41447;DHT22;27185;52.040;4.490;2023-08-07T10:05:43;22.00;97.00
41447;DHT22;27185;52.040;4.490;2023-08-07T10:08:29;22.10;97.20
41447;DHT22;27185;52.040;4.490;2023-08-07T10:11:15;22.20;97.10
41447;DHT22;27185;52.040;4.490;2023-08-07T10:14:01;22.30;96.90
41447;DHT22;27185;52.040;4.490;2023-08-07T10:16:48;22.40;95.70
41447;DHT22;27185;52.040;4.490;2023-08-07T10:19:34;22.40;94.80
41447;DHT22;27185;52.040;4.490;2023-08-07T10:22:20;22.60;95.40
41447;DHT22;27185;52.040;4.490;2023-08-07T10:25:11;22.70;95.60
41447;DHT22;27185;52.040;4.490;2023-08-07T10:27:58;22.70;95.30
41447;DHT22;27185;52.040;4.490;2023-08-07T10:30:45;22.80;95.00
41447;DHT22;27185;52.040;4.490;2023-08-07T10:33:32;22.90;95.70
41447;DHT22;27185;52.040;4.490;2023-08-07T10:36:18;23.10;95.20
41447;DHT22;27185;52.040;4.490;2023-08-07T10:39:11;23.30;94.70
41447;DHT22;27185;52.040;4.490;2023-08-07T10:41:57;23.30;92.90
41447;DHT22;27185;52.040;4.490;2023-08-07T10:44:48;23.40;94.10
41447;DHT22;27185;52.040;4.490;2023-08-07T10:47:36;23.40;93.00
41447;DHT22;27185;52.040;4.490;2023-08-07T10:50:28;23.40;94.30
41447;DHT22;27185;52.040;4.490;2023-08-07T10:56:34;23.10;92.70
41447;DHT22;27185;52.040;4.490;2023-08-07T10:59:20;23.10;92.60
41447;DHT22;27185;52.040;4.490;2023-08-07T11:02:08;23.10;93.90
41447;DHT22;27185;52.040;4.490;2023-08-07T11:04:56;23.30;92.90
41447;DHT22;27185;52.040;4.490;2023-08-07T11:07:42;23.20;92.90
41447;DHT22;27185;52.040;4.490;2023-08-07T11:10:30;23.20;93.90
41447;DHT22;27185;52.040;4.490;2023-08-07T11:13:15;23.20;93.70
41447;DHT22;27185;52.040;4.490;2023-08-07T11:16:13;23.30;93.20
41447;DHT22;27185;52.040;4.490;2023-08-07T11:19:00;23.30;93.10
41447;DHT22;27185;52.040;4.490;2023-08-07T11:21:49;23.40;94.00
41447;DHT22;27185;52.040;4.490;2023-08-07T11:24:39;23.60;92.00
41447;DHT22;27185;52.040;4.490;2023-08-07T11:27:24;23.70;92.90
41447;DHT22;27185;52.040;4.490;2023-08-07T11:30:11;23.80;91.60
41447;DHT22;27185;52.040;4.490;2023-08-07T11:32:57;23.90;92.00
41447;DHT22;27185;52.040;4.490;2023-08-07T11:35:43;24.00;92.40
41447;DHT22;27185;52.040;4.490;2023-08-07T11:38:33;24.00;92.90
41447;DHT22;27185;52.040;4.490;2023-08-07T11:41:19;24.10;92.50
41447;DHT22;27185;52.040;4.490;2023-08-07T11:44:08;24.20;92.60
41447;DHT22;27185;52.040;4.490;2023-08-07T11:46:54;24.30;92.10
41447;DHT22;27185;52.040;4.490;2023-08-07T11:49:39;24.30;92.40
41447;DHT22;27185;52.040;4.490;2023-08-07T11:52:25;24.20;92.40
41447;DHT22;27185;52.040;4.490;2023-08-07T11:55:13;24.00;92.30
41447;DHT22;27185;52.040;4.490;2023-08-07T11:58:02;23.90;92.60
41447;DHT22;27185;52.040;4.490;2023-08-07T12:00:48;23.90;92.60
41447;DHT22;27185;52.040;4.490;2023-08-07T12:03:40;23.80;93.00
41447;DHT22;27185;52.040;4.490;2023-08-07T12:06:26;23.70;92.40
41447;DHT22;27185;52.040;4.490;2023-08-07T12:09:12;23.70;92.80
41447;DHT22;27185;52.040;4.490;2023-08-07T12:11:58;23.70;93.40
41447;DHT22;27185;52.040;4.490;2023-08-07T12:14:44;23.90;93.80
41447;DHT22;27185;52.040;4.490;2023-08-07T12:17:31;24.00;92.60
41447;DHT22;27185;52.040;4.490;2023-08-07T12:20:17;24.10;91.90
41447;DHT22;27185;52.040;4.490;2023-08-07T12:23:04;24.20;91.30
41447;DHT22;27185;52.040;4.490;2023-08-07T12:25:50;24.10;91.40
41447;DHT22;27185;52.040;4.490;2023-08-07T12:28:37;24.00;91.90
41447;DHT22;27185;52.040;4.490;2023-08-07T12:31:23;23.80;91.90
41447;DHT22;27185;52.040;4.490;2023-08-07T12:34:08;23.70;92.40
41447;DHT22;27185;52.040;4.490;2023-08-07T12:36:56;23.70;93.10
41447;DHT22;27185;52.040;4.490;2023-08-07T12:39:41;23.60;93.20
41447;DHT22;27185;52.040;4.490;2023-08-07T12:42:28;23.60;92.90
41447;DHT22;27185;52.040;4.490;2023-08-07T12:45:15;23.60;93.00
41447;DHT22;27185;52.040;4.490;2023-08-07T12:48:01;23.60;93.30
41447;DHT22;27185;52.040;4.490;2023-08-07T12:50:47;23.60;93.40
41447;DHT22;27185;52.040;4.490;2023-08-07T12:53:32;23.60;93.40
41447;DHT22;27185;52.040;4.490;2023-08-07T12:56:18;23.40;93.40
41447;DHT22;27185;52.040;4.490;2023-08-07T12:59:04;23.20;93.80
41447;DHT22;27185;52.040;4.490;2023-08-07T13:01:49;23.00;93.00
41447;DHT22;27185;52.040;4.490;2023-08-07T13:04:35;22.60;91.90
41447;DHT22;27185;52.040;4.490;2023-08-07T13:07:21;22.20;92.30
41447;DHT22;27185;52.040;4.490;2023-08-07T13:10:07;22.00;92.90
41447;DHT22;27185;52.040;4.490;2023-08-07T13:12:54;21.90;94.00
41447;DHT22;27185;52.040;4.490;2023-08-07T13:15:39;21.90;94.80
41447;DHT22;27185;52.040;4.490;2023-08-07T13:18:25;21.80;95.20
41447;DHT22;27185;52.040;4.490;2023-08-07T13:21:10;21.80;95.90
41447;DHT22;27185;52.040;4.490;2023-08-07T13:23:56;21.70;96.30
41447;DHT22;27185;52.040;4.490;2023-08-07T13:26:43;21.60;96.40
41447;DHT22;27185;52.040;4.490;2023-08-07T13:29:30;21.60;97.10
41447;DHT22;27185;52.040;4.490;2023-08-07T13:32:15;21.60;97.10
41447;DHT22;27185;52.040;4.490;2023-08-07T13:35:04;21.70;97.20
41447;DHT22;27185;52.040;4.490;2023-08-07T13:37:50;21.80;97.10
41447;DHT22;27185;52.040;4.490;2023-08-07T13:40:36;22.00;96.20
41447;DHT22;27185;52.040;4.490;2023-08-07T13:43:21;22.10;96.70
41447;DHT22;27185;52.040;4.490;2023-08-07T13:46:07;22.10;96.10
41447;DHT22;27185;52.040;4.490;2023-08-07T13:48:52;22.10;95.90
41447;DHT22;27185;52.040;4.490;2023-08-07T13:51:38;21.90;96.00
41447;DHT22;27185;52.040;4.490;2023-08-07T13:54:23;21.80;96.10
41447;DHT22;27185;52.040;4.490;2023-08-07T13:57:09;21.70;96.10
41447;DHT22;27185;52.040;4.490;2023-08-07T13:59:55;21.80;95.90
41447;DHT22;27185;52.040;4.490;2023-08-07T14:02:41;21.90;95.10
41447;DHT22;27185;52.040;4.490;2023-08-07T14:05:26;22.00;95.00
41447;DHT22;27185;52.040;4.490;2023-08-07T14:08:12;22.00;94.80
41447;DHT22;27185;52.040;4.490;2023-08-07T14:10:57;22.00;94.90
41447;DHT22;27185;52.040;4.490;2023-08-07T14:13:43;22.10;94.80
41447;DHT22;27185;52.040;4.490;2023-08-07T14:16:29;22.20;94.70
41447;DHT22;27185;52.040;4.490;2023-08-07T14:19:16;22.30;94.80
41447;DHT22;27185;52.040;4.490;2023-08-07T14:22:02;22.30;94.70
41447;DHT22;27185;52.040;4.490;2023-08-07T14:24:51;22.30;95.10
41447;DHT22;27185;52.040;4.490;2023-08-07T14:27:37;22.40;95.40
41447;DHT22;27185;52.040;4.490;2023-08-07T14:30:22;22.30;94.00
41447;DHT22;27185;52.040;4.490;2023-08-07T14:33:09;22.30;94.40
41447;DHT22;27185;52.040;4.490;2023-08-07T14:35:55;22.30;94.60
41447;DHT22;27185;52.040;4.490;2023-08-07T14:38:53;22.30;95.20
41447;DHT22;27185;52.040;4.490;2023-08-07T14:41:53;22.30;93.70
41447;DHT22;27185;52.040;4.490;2023-08-07T14:45:01;22.20;94.20
41447;DHT22;27185;52.040;4.490;2023-08-07T14:47:47;22.10;95.40
41447;DHT22;27185;52.040;4.490;2023-08-07T14:50:33;22.20;95.90
41447;DHT22;27185;52.040;4.490;2023-08-07T14:53:18;22.20;95.60
41447;DHT22;27185;52.040;4.490;2023-08-07T14:56:04;22.30;95.30
41447;DHT22;27185;52.040;4.490;2023-08-07T14:58:50;22.30;95.10
41447;DHT22;27185;52.040;4.490;2023-08-07T15:01:35;22.30;95.50
41447;DHT22;27185;52.040;4.490;2023-08-07T15:04:24;22.30;95.40
41447;DHT22;27185;52.040;4.490;2023-08-07T15:07:10;22.40;95.40
41447;DHT22;27185;52.040;4.490;2023-08-07T15:09:56;22.50;95.60
41447;DHT22;27185;52.040;4.490;2023-08-07T15:12:41;22.50;95.10
41447;DHT22;27185;52.040;4.490;2023-08-07T15:15:27;22.50;94.80
41447;DHT22;27185;52.040;4.490;2023-08-07T15:18:13;22.50;95.10
41447;DHT22;27185;52.040;4.490;2023-08-07T15:20:59;22.50;96.00
41447;DHT22;27185;52.040;4.490;2023-08-07T15:23:46;22.70;96.20
41447;DHT22;27185;52.040;4.490;2023-08-07T15:26:32;22.90;95.50
41447;DHT22;27185;52.040;4.490;2023-08-07T15:29:18;23.10;95.80
41447;DHT22;27185;52.040;4.490;2023-08-07T15:32:04;23.30;95.90
41447;DHT22;27185;52.040;4.490;2023-08-07T15:34:50;23.30;95.00
41447;DHT22;27185;52.040;4.490;2023-08-07T15:37:35;23.30;94.60
41447;DHT22;27185;52.040;4.490;2023-08-07T15:40:21;23.30;95.00
41447;DHT22;27185;52.040;4.490;2023-08-07T15:43:08;23.10;94.80
41447;DHT22;27185;52.040;4.490;2023-08-07T15:45:55;23.00;94.60
41447;DHT22;27185;52.040;4.490;2023-08-07T15:48:41;22.80;94.80
41447;DHT22;27185;52.040;4.490;2023-08-07T15:51:35;22.70;95.10
41447;DHT22;27185;52.040;4.490;2023-08-07T15:54:21;22.80;95.80
41447;DHT22;27185;52.040;4.490;2023-08-07T15:57:06;23.00;95.30
41447;DHT22;27185;52.040;4.490;2023-08-07T15:59:52;23.00;95.40
41447;DHT22;27185;52.040;4.490;2023-08-07T16:02:38;23.10;95.60
41447;DHT22;27185;52.040;4.490;2023-08-07T16:05:23;23.20;96.10
41447;DHT22;27185;52.040;4.490;2023-08-07T16:08:09;23.30;95.10
41447;DHT22;27185;52.040;4.490;2023-08-07T16:10:56;23.30;94.70
41447;DHT22;27185;52.040;4.490;2023-08-07T16:13:42;23.30;94.60
41447;DHT22;27185;52.040;4.490;2023-08-07T16:16:29;23.30;94.90
41447;DHT22;27185;52.040;4.490;2023-08-07T16:19:15;23.30;95.20
41447;DHT22;27185;52.040;4.490;2023-08-07T16:22:01;23.20;94.20
41447;DHT22;27185;52.040;4.490;2023-08-07T16:24:47;23.10;94.30
41447;DHT22;27185;52.040;4.490;2023-08-07T16:27:33;23.00;94.60
41447;DHT22;27185;52.040;4.490;2023-08-07T16:30:19;22.90;95.10
41447;DHT22;27185;52.040;4.490;2023-08-07T16:33:05;22.80;94.50
41447;DHT22;27185;52.040;4.490;2023-08-07T16:35:50;22.60;93.40
41447;DHT22;27185;52.040;4.490;2023-08-07T16:38:36;22.50;94.40
41447;DHT22;27185;52.040;4.490;2023-08-07T16:41:22;22.40;94.60
41447;DHT22;27185;52.040;4.490;2023-08-07T16:44:08;22.20;94.80
41447;DHT22;27185;52.040;4.490;2023-08-07T16:46:53;22.10;95.30
41447;DHT22;27185;52.040;4.490;2023-08-07T16:49:39;22.00;95.80
41447;DHT22;27185;52.040;4.490;2023-08-07T16:52:25;22.00;95.70
41447;DHT22;27185;52.040;4.490;2023-08-07T16:55:11;21.90;95.60
41447;DHT22;27185;52.040;4.490;2023-08-07T16:57:57;22.00;96.30
41447;DHT22;27185;52.040;4.490;2023-08-07T17:00:45;22.10;96.20
41447;DHT22;27185;52.040;4.490;2023-08-07T17:03:31;22.30;96.00
41447;DHT22;27185;52.040;4.490;2023-08-07T17:06:16;22.60;96.10
41447;DHT22;27185;52.040;4.490;2023-08-07T17:09:02;23.00;95.30
41447;DHT22;27185;52.040;4.490;2023-08-07T17:11:48;23.30;95.30
41447;DHT22;27185;52.040;4.490;2023-08-07T17:14:33;23.40;94.40
41447;DHT22;27185;52.040;4.490;2023-08-07T17:17:19;23.60;94.00
41447;DHT22;27185;52.040;4.490;2023-08-07T17:20:05;23.70;94.10
41447;DHT22;27185;52.040;4.490;2023-08-07T17:22:51;23.80;94.10
41447;DHT22;27185;52.040;4.490;2023-08-07T17:25:37;23.90;94.10
41447;DHT22;27185;52.040;4.490;2023-08-07T17:28:22;23.70;93.10
41447;DHT22;27185;52.040;4.490;2023-08-07T17:31:08;23.60;93.20
41447;DHT22;27185;52.040;4.490;2023-08-07T17:33:53;23.40;93.30
41447;DHT22;27185;52.040;4.490;2023-08-07T17:36:42;23.10;93.50
41447;DHT22;27185;52.040;4.490;2023-08-07T17:39:28;22.90;93.40
41447;DHT22;27185;52.040;4.490;2023-08-07T17:42:13;22.70;94.00